createdAt,value
2022-09-07T00:02:31.252Z,100240.06
2022-09-07T00:07:33.999Z,100233.81
2022-09-07T00:12:36.709Z,100234.97
2022-09-07T00:17:41.036Z,100226.84
2022-09-07T00:22:43.752Z,100224.47
2022-09-07T00:27:46.580Z,100223.63
2022-09-07T00:32:50.963Z,100213.81
2022-09-07T00:37:53.683Z,100210.97
2022-09-07T00:42:56.661Z,100203.28
2022-09-07T00:48:02.327Z,100210.53
2022-09-07T00:53:06.116Z,100205.13
2022-09-07T00:58:09.029Z,100202.75
2022-09-07T01:03:13.084Z,100216.09
2022-09-07T01:08:15.779Z,100202.75
2022-09-07T01:13:18.644Z,100214.53
2022-09-07T01:18:27.336Z,100213.69
2022-09-07T01:24:03.844Z,100209.16
2022-09-07T01:29:09.250Z,100213.69
2022-09-07T01:34:14.155Z,100206.72
2022-09-07T01:39:16.987Z,100214.13
2022-09-07T01:44:21.830Z,100207.03
2022-09-07T01:49:26.185Z,100204.47
2022-09-07T01:54:31.217Z,100202.94
2022-09-07T01:59:36.293Z,100210.34
2022-09-07T02:04:41.809Z,100184.31
2022-09-07T02:09:48.437Z,100191.72
2022-09-07T02:14:54.265Z,100177.53
2022-09-07T02:19:59.917Z,100172.44
2022-09-07T02:25:04.328Z,100192.31
2022-09-07T02:30:10.307Z,100190.47
2022-09-07T02:35:12.987Z,100179.78
2022-09-07T02:40:15.852Z,100183.63
2022-09-07T02:45:19.974Z,100187.47
2022-09-07T02:50:41.607Z,100185.75
2022-09-07T02:55:47.637Z,100185.34
2022-09-07T03:00:54.029Z,100186.63
2022-09-07T03:05:59.152Z,100200.69
2022-09-07T03:11:01.909Z,100190.19
2022-09-07T03:16:06.753Z,100181.97
2022-09-07T03:21:09.722Z,100181.41
2022-09-07T03:26:20.747Z,100177.97
2022-09-07T03:31:24.897Z,100176.16
2022-09-07T03:36:27.668Z,100171.31
2022-09-07T03:41:30.646Z,100179.81
2022-09-07T03:46:34.892Z,100172.72
2022-09-07T03:51:37.679Z,100169.19
2022-09-07T03:56:40.391Z,100174.03
2022-09-07T04:01:44.657Z,100179.44
2022-09-07T04:06:47.421Z,100174.44
2022-09-07T04:11:50.183Z,100178.16
2022-09-07T04:16:54.381Z,100176.59
2022-09-07T04:21:57.475Z,100168.66
2022-09-07T04:27:00.204Z,100160.72
2022-09-07T04:32:04.516Z,100159.00
2022-09-07T04:37:07.299Z,100149.94
2022-09-07T04:42:10.049Z,100139.28
2022-09-07T04:47:14.111Z,100132.03
2022-09-07T04:52:17.450Z,100145.66
2022-09-07T04:57:21.843Z,100138.56
2022-09-07T05:02:26.110Z,100144.94
2022-09-07T05:07:28.937Z,100129.78
2022-09-07T05:12:31.663Z,100133.47
2022-09-07T05:17:35.774Z,100121.53
2022-09-07T05:22:41.014Z,100123.69
2022-09-07T05:27:43.786Z,100119.97
2022-09-07T05:32:47.809Z,100117.44
2022-09-07T05:37:51.099Z,100125.06
2022-09-07T05:42:53.786Z,100113.44
2022-09-07T05:47:58.065Z,100111.59
2022-09-07T05:53:00.806Z,100114.28
2022-09-07T05:58:03.613Z,100108.91
2022-09-07T06:03:07.814Z,100121.25
2022-09-07T06:08:10.608Z,100115.13
2022-09-07T06:13:13.419Z,100117.69
2022-09-07T06:18:17.578Z,100118.44
2022-09-07T06:23:20.300Z,100136.13
2022-09-07T06:28:28.680Z,100116.38
2022-09-07T06:33:32.952Z,100114.41
2022-09-07T06:38:37.492Z,100101.66
2022-09-07T06:43:44.158Z,100113.13
2022-09-07T06:48:53.071Z,100109.75
2022-09-07T06:59:20.231Z,100090.75
2022-09-07T07:04:24.375Z,100097.00
2022-09-07T07:09:27.122Z,100097.28
2022-09-07T07:14:33.722Z,100092.34
2022-09-07T07:19:39.096Z,100088.22
2022-09-07T07:24:42.017Z,100085.25
2022-09-07T07:29:45.778Z,100086.66
2022-09-07T07:34:49.762Z,100088.78
2022-09-07T07:50:39.366Z,100089.44
2022-09-07T07:55:43.657Z,100097.94
2022-09-07T08:00:55.546Z,100102.91
2022-09-07T08:06:07.921Z,100104.03
2022-09-07T08:11:12.177Z,100092.41
2022-09-07T08:16:15.095Z,100103.72
2022-09-07T08:21:19.323Z,100093.78
2022-09-07T08:26:21.927Z,100096.34
2022-09-07T08:31:24.669Z,100101.56
2022-09-07T08:36:31.622Z,100085.38
2022-09-07T08:41:46.478Z,100094.22
2022-09-07T08:46:50.360Z,100077.19
2022-09-07T08:51:56.173Z,100088.66
2022-09-07T09:02:33.716Z,100089.50
2022-09-07T09:07:43.246Z,100094.75
2022-09-07T09:12:56.049Z,100092.75
2022-09-07T09:18:02.239Z,100086.34
2022-09-07T09:23:13.768Z,100093.03
2022-09-07T09:28:16.480Z,100102.69
2022-09-07T09:33:20.359Z,100108.22
2022-09-07T09:38:32.229Z,100108.78
2022-09-07T09:43:42.455Z,100097.56
2022-09-07T09:48:50.986Z,100095.56
2022-09-07T09:54:02.753Z,100091.25
2022-09-07T10:04:46.122Z,100095.50
2022-09-07T10:09:51.725Z,100088.25
2022-09-07T10:14:56.394Z,100077.31
2022-09-07T10:20:00.317Z,100078.72
2022-09-07T10:25:05.544Z,100074.03
2022-09-07T10:30:13.430Z,100071.00
2022-09-07T10:35:18.963Z,100069.88
2022-09-07T10:40:29.548Z,100075.13
2022-09-07T10:45:38.140Z,100065.38
2022-09-07T10:50:45.043Z,100058.84
2022-09-07T10:55:54.156Z,100057.25
2022-09-07T11:01:06.665Z,100068.44
2022-09-07T11:06:16.813Z,100059.16
2022-09-07T11:12:00.621Z,100058.88
2022-09-07T11:16:50.742Z,100058.88
2022-09-07T11:21:57.587Z,100052.31
2022-09-07T11:27:03.188Z,100042.72
2022-09-07T11:32:08.543Z,100044.34
2022-09-07T11:37:17.130Z,100040.88
2022-09-07T11:47:47.288Z,100020.78
2022-09-07T11:52:53.541Z,100019.63
2022-09-07T11:58:10.456Z,100003.25
2022-09-07T12:03:36.932Z,99991.44
2022-09-07T12:08:48.624Z,99988.88
2022-09-07T12:14:04.949Z,99981.34
2022-09-07T12:19:18.896Z,99989.66
2022-09-07T12:24:38.523Z,99980.00
2022-09-07T12:29:45.690Z,99975.97
2022-09-07T12:34:53.202Z,99966.16
2022-09-07T12:40:29.415Z,99967.19
2022-09-07T12:45:50.463Z,99970.66
2022-09-07T12:50:56.495Z,99966.97
2022-09-07T12:56:22.330Z,99954.34
2022-09-07T13:01:36.338Z,99953.47
2022-09-07T13:07:11.495Z,99956.00
2022-09-07T13:17:57.278Z,99943.50
2022-09-07T13:23:24.350Z,99936.13
2022-09-07T13:28:32.844Z,99937.19
2022-09-07T13:33:48.160Z,99924.72
2022-09-07T13:38:51.600Z,99932.91
2022-09-07T13:43:58.271Z,99926.28
2022-09-07T13:49:06.062Z,99927.03
2022-09-07T13:54:11.496Z,99923.25
2022-09-07T13:59:19.361Z,99914.41
2022-09-07T14:04:24.826Z,99926.25
2022-09-07T14:09:27.501Z,99927.19
2022-09-07T14:14:32.729Z,99932.28
2022-09-07T14:19:39.319Z,99932.44
2022-09-07T14:24:43.059Z,99934.66
2022-09-07T14:29:45.917Z,99931.56
2022-09-07T14:34:49.894Z,99929.81
2022-09-07T14:39:52.804Z,99929.47
2022-09-07T14:45:18.269Z,99921.03
2022-09-07T14:50:23.836Z,99914.94
2022-09-07T14:55:30.982Z,99913.06
2022-09-07T15:00:34.395Z,99906.19
2022-09-07T15:05:48.474Z,99909.22
2022-09-07T15:16:22.300Z,99905.06
2022-09-07T15:21:27.350Z,99907.72
2022-09-07T15:32:02.285Z,99889.19
2022-09-07T15:47:54.201Z,99880.19
2022-09-07T15:53:00.854Z,99873.03
2022-09-07T15:58:11.400Z,99874.72
2022-09-07T16:03:14.811Z,99870.69
2022-09-07T16:08:26.151Z,99872.31
2022-09-07T16:13:31.484Z,99871.00
2022-09-07T16:18:34.487Z,99859.69
2022-09-07T16:23:39.052Z,99867.63
2022-09-07T16:28:42.895Z,99865.66
2022-09-07T16:33:45.764Z,99867.63
2022-09-07T16:38:50.013Z,99876.00
2022-09-07T16:43:52.635Z,99858.72
2022-09-07T16:48:55.468Z,99863.44
2022-09-07T16:53:59.812Z,99874.72
2022-09-07T16:59:03.251Z,99861.53
2022-09-07T17:04:10.671Z,99851.56
2022-09-07T17:09:15.868Z,99855.59
2022-09-07T17:14:18.750Z,99870.25
2022-09-07T17:19:30.107Z,99864.56
2022-09-07T17:24:34.465Z,99877.09
2022-09-07T17:29:37.681Z,99884.03
2022-09-07T17:34:40.411Z,99869.81
2022-09-07T17:39:44.768Z,99873.38
2022-09-07T17:44:52.886Z,99878.06
2022-09-07T17:49:55.706Z,99874.22
2022-09-07T17:55:01.322Z,99879.97
2022-09-07T18:00:14.557Z,99877.25
2022-09-07T18:05:18.351Z,99871.03
2022-09-07T18:10:22.442Z,99887.97
2022-09-07T18:15:25.416Z,99887.09
2022-09-07T18:20:27.990Z,99896.16
2022-09-07T18:25:32.013Z,99899.06
2022-09-07T18:30:36.580Z,99912.06
2022-09-07T18:35:39.158Z,99899.88
2022-09-07T18:40:43.138Z,99881.66
2022-09-07T18:45:45.863Z,99877.16
2022-09-07T18:50:54.077Z,99899.88
2022-09-07T18:56:03.742Z,99898.06
2022-09-07T19:01:07.554Z,99887.78
2022-09-07T19:06:12.826Z,99886.94
2022-09-07T19:11:17.650Z,99890.75
2022-09-07T19:16:20.386Z,99883.84
2022-09-07T19:21:24.509Z,99909.53
2022-09-07T19:26:29.330Z,99948.84
2022-09-07T19:31:32.188Z,99955.38
2022-09-07T19:36:34.945Z,99944.88
2022-09-07T19:41:42.394Z,99947.91
2022-09-07T19:46:45.317Z,99962.50
2022-09-07T19:51:49.374Z,99958.41
2022-09-07T19:56:53.346Z,99957.47
2022-09-07T20:01:56.114Z,99963.13
2022-09-07T20:06:58.677Z,99956.84
2022-09-07T20:12:03.760Z,99951.06
2022-09-07T20:17:06.390Z,99926.69
2022-09-07T20:22:08.964Z,99912.56
2022-09-07T20:27:12.998Z,99909.75
2022-09-07T20:32:16.721Z,99893.56
2022-09-07T20:37:19.335Z,99871.41
2022-09-07T20:42:23.245Z,99873.97
2022-09-07T20:47:26.110Z,99864.41
2022-09-07T20:52:28.749Z,99861.38
2022-09-07T20:57:32.765Z,99854.78
2022-09-07T21:02:35.817Z,99855.97
2022-09-07T21:07:38.896Z,99863.44
2022-09-07T21:12:42.995Z,99871.28
2022-09-07T21:17:45.596Z,99872.41
2022-09-07T21:22:49.371Z,99874.41
2022-09-07T21:27:53.387Z,99868.88
2022-09-07T21:32:58.826Z,99863.84
2022-09-07T21:38:05.050Z,99861.31
2022-09-07T21:43:08.980Z,99851.56
2022-09-07T21:48:11.581Z,99855.81
2022-09-07T21:53:14.283Z,99849.53
2022-09-07T21:58:18.262Z,99856.34
2022-09-07T22:03:20.829Z,99850.56
2022-09-07T22:08:23.433Z,99851.03
2022-09-07T22:13:28.680Z,99843.22
2022-09-07T22:18:31.571Z,99848.13
2022-09-07T22:23:34.547Z,99838.50
2022-09-07T22:28:38.809Z,99837.94
2022-09-07T22:33:41.641Z,99839.13
2022-09-07T22:38:45.287Z,99836.94
2022-09-07T22:43:50.941Z,99833.63
2022-09-07T22:48:54.333Z,99834.13
2022-09-07T22:53:56.939Z,99829.38
2022-09-07T22:59:01.824Z,99827.84
2022-09-07T23:04:04.792Z,99823.44
2022-09-07T23:09:08.329Z,99819.22
2022-09-07T23:14:14.952Z,99824.63
2022-09-07T23:19:18.137Z,99830.31
2022-09-07T23:24:20.963Z,99814.16
2022-09-07T23:29:24.930Z,99808.53
2022-09-07T23:34:27.559Z,99801.38
2022-09-07T23:39:30.173Z,99796.06
2022-09-07T23:44:34.129Z,99786.25
2022-09-07T23:49:36.710Z,99788.41
2022-09-07T23:54:39.724Z,99795.31
2022-09-07T23:59:43.625Z,99801.88
